Time;durP1;ratioP1;P1;durP2;ratioP2;P2;SDS_P1;SDS_P2;PMS_P1;PMS_P2;Temp;Humidity;BMP_temperature;BMP_pressure;BME280_temperature;BME280_humidity;BME280_pressure;Samples;Min_cycle;Max_cycle;Signal;HPM_P1;HPM_P2
2021/04/27 00:01:44;;;;;;;3.25;1.40;;;6.60;47.80;;;;;;5069159;28;20025;-74
2021/04/27 00:04:10;;;;;;;5.43;1.52;;;6.40;48.00;;;;;;5051725;28;20406;-74
2021/04/27 00:06:37;;;;;;;3.80;1.30;;;6.40;48.30;;;;;;5051969;28;20037;-74
2021/04/27 00:09:06;;;;;;;2.60;1.65;;;6.40;48.20;;;;;;5061901;28;20485;-74
2021/04/27 00:11:32;;;;;;;2.45;1.40;;;6.60;47.90;;;;;;5051788;28;20037;-74
2021/04/27 00:13:59;;;;;;;4.45;1.45;;;6.80;47.40;;;;;;5051278;28;20036;-74
2021/04/27 00:16:26;;;;;;;3.50;1.27;;;6.80;47.50;;;;;;5051368;28;20049;-74
2021/04/27 00:18:52;;;;;;;3.58;1.50;;;6.70;47.70;;;;;;5051315;28;20025;-74
2021/04/27 00:21:19;;;;;;;2.97;1.10;;;6.70;47.70;;;;;;5051488;28;20029;-74
2021/04/27 00:23:45;;;;;;;3.10;1.30;;;6.50;48.10;;;;;;5063845;28;20029;-74
2021/04/27 00:26:11;;;;;;;3.17;1.55;;;6.40;48.50;;;;;;5058475;28;20462;-74
2021/04/27 00:28:37;;;;;;;2.08;1.38;;;6.20;49.20;;;;;;5055216;28;20040;-74
2021/04/27 00:31:04;;;;;;;1.88;1.40;;;6.20;49.10;;;;;;5054781;28;20045;-75
2021/04/27 00:33:30;;;;;;;4.90;1.50;;;6.10;49.70;;;;;;5067854;28;20044;-74
2021/04/27 00:35:56;;;;;;;4.13;1.40;;;6.10;49.20;;;;;;5055613;28;20500;-75
2021/04/27 00:38:22;;;;;;;6.55;1.10;;;6.10;49.20;;;;;;5055035;28;20410;-74
2021/04/27 00:40:49;;;;;;;4.82;1.35;;;6.00;49.40;;;;;;5063095;28;20032;-75
2021/04/27 00:43:15;;;;;;;2.35;1.35;;;5.90;49.70;;;;;;5054847;28;20049;-75
2021/04/27 00:45:41;;;;;;;3.65;1.52;;;5.80;50.40;;;;;;5055262;28;20051;-75
2021/04/27 00:48:08;;;;;;;2.63;1.55;;;5.70;50.90;;;;;;5053706;28;20056;-75
2021/04/27 00:50:37;;;;;;;3.83;1.10;;;5.70;51.30;;;;;;5069627;28;20032;-75
2021/04/27 00:53:04;;;;;;;9.98;1.80;;;5.70;52.30;;;;;;5061531;28;20044;-75
2021/04/27 00:55:32;;;;;;;10.32;1.40;;;5.40;53.20;;;;;;5060867;28;20504;-75
2021/04/27 00:57:59;;;;;;;4.68;1.75;;;5.30;54.00;;;;;;5067917;28;20032;-74
2021/04/27 01:00:31;;;;;;;3.95;1.80;;;5.10;54.70;;;;;;5055025;28;20049;-74
2021/04/27 01:02:58;;;;;;;3.25;1.15;;;4.90;54.90;;;;;;5053812;28;20040;-74
2021/04/27 01:05:27;;;;;;;3.33;0.90;;;4.70;55.40;;;;;;5054361;28;20036;-74
2021/04/27 01:08:11;;;;;;;2.15;1.02;;;4.70;55.50;;;;;;5054366;28;20053;-74
2021/04/27 01:10:57;;;;;;;3.55;1.25;;;4.70;55.40;;;;;;5054917;28;20036;-74
2021/04/27 01:13:35;;;;;;;3.08;1.30;;;4.60;55.60;;;;;;5052838;28;20048;-75
2021/04/27 01:16:03;;;;;;;3.92;1.30;;;4.50;56.20;;;;;;5054885;28;20382;-74
2021/04/27 01:18:32;;;;;;;4.15;2.00;;;4.50;56.50;;;;;;5052883;28;20475;-74
2021/04/27 01:21:01;;;;;;;3.13;1.00;;;4.40;56.20;;;;;;5054555;28;20052;-74
2021/04/27 01:23:42;;;;;;;3.25;1.23;;;4.50;55.50;;;;;;5053560;28;20037;-74
2021/04/27 01:26:19;;;;;;;5.30;1.30;;;4.60;54.90;;;;;;5054760;28;20508;-75
2021/04/27 01:28:50;;;;;;;7.22;1.58;;;4.60;55.10;;;;;;5067333;28;20052;-74
2021/04/27 01:31:17;;;;;;;2.58;1.15;;;4.50;55.20;;;;;;5068247;28;20041;-75
2021/04/27 01:33:46;;;;;;;4.20;1.83;;;4.60;55.00;;;;;;5054006;28;20051;-74
2021/04/27 01:36:14;;;;;;;2.85;1.48;;;4.80;53.80;;;;;;5064264;28;20044;-75
2021/04/27 01:38:49;;;;;;;3.17;1.25;;;4.80;54.20;;;;;;5058704;28;20060;-74
2021/04/27 01:41:17;;;;;;;3.30;1.25;;;4.90;53.80;;;;;;5071567;28;20417;-75
2021/04/27 01:43:46;;;;;;;2.92;1.17;;;4.90;53.80;;;;;;5055397;28;20139;-75
2021/04/27 01:46:12;;;;;;;2.42;1.02;;;5.10;52.80;;;;;;5060981;28;20029;-75
2021/04/27 01:48:39;;;;;;;2.80;1.23;;;5.10;52.80;;;;;;5070741;28;20055;-74
2021/04/27 01:51:10;;;;;;;4.47;1.20;;;5.10;53.00;;;;;;5067582;28;20045;-74
2021/04/27 01:53:55;;;;;;;5.00;1.15;;;5.00;53.20;;;;;;5077408;28;20040;-74
2021/04/27 01:56:24;;;;;;;4.88;1.13;;;5.20;52.00;;;;;;5053139;28;20055;-75
2021/04/27 01:58:51;;;;;;;4.45;1.30;;;5.30;51.90;;;;;;5056481;28;20032;-75
2021/04/27 02:01:22;;;;;;;4.60;1.60;;;5.30;51.80;;;;;;5070912;28;20106;-75
2021/04/27 02:03:49;;;;;;;2.47;1.00;;;5.30;51.90;;;;;;5063689;28;20394;-75
2021/04/27 02:06:34;;;;;;;5.18;2.10;;;5.20;52.30;;;;;;5060230;28;20381;-75
2021/04/27 02:09:11;;;;;;;2.42;0.98;;;5.20;53.00;;;;;;5068214;28;20040;-75
2021/04/27 02:11:39;;;;;;;3.25;1.10;;;5.00;54.00;;;;;;5053979;28;20041;-75
2021/04/27 02:14:08;;;;;;;2.15;1.10;;;4.80;54.40;;;;;;5052029;28;20044;-74
2021/04/27 02:17:13;;;;;;;4.95;1.08;;;4.70;54.20;;;;;;5068678;28;20478;-75
2021/04/27 02:19:40;;;;;;;2.20;1.30;;;4.70;55.20;;;;;;5062125;28;20386;-75
2021/04/27 02:22:27;;;;;;;2.78;1.30;;;4.70;55.80;;;;;;5052940;28;20044;-74
2021/04/27 02:25:32;;;;;;;2.50;1.05;;;4.60;55.60;;;;;;5028238;28;20045;-74
2021/04/27 02:27:59;;;;;;;3.10;1.30;;;4.50;55.50;;;;;;5030649;28;20048;-75
2021/04/27 02:30:26;;;;;;;2.17;1.15;;;4.60;55.60;;;;;;5040479;28;20056;-75
2021/04/27 02:32:53;;;;;;;3.22;1.10;;;4.60;56.00;;;;;;5053112;28;20045;-75
2021/04/27 02:35:20;;;;;;;3.15;1.35;;;4.60;56.00;;;;;;5058858;28;20040;-75
2021/04/27 02:37:50;;;;;;;3.53;1.30;;;4.50;57.40;;;;;;5065645;28;20033;-74
2021/04/27 02:40:33;;;;;;;4.50;1.30;;;4.40;56.30;;;;;;5051801;28;20060;-74
2021/04/27 02:43:00;;;;;;;4.70;1.30;;;4.40;55.70;;;;;;5051804;28;20029;-74
2021/04/27 02:45:43;;;;;;;4.82;1.10;;;4.40;55.30;;;;;;5071964;28;20079;-73
2021/04/27 02:48:27;;;;;;;2.65;1.00;;;4.50;55.70;;;;;;5054731;28;20060;-74
2021/04/27 02:51:05;;;;;;;3.28;1.15;;;4.50;55.00;;;;;;5065701;28;20478;-74
2021/04/27 02:53:51;;;;;;;1.83;1.20;;;4.60;54.80;;;;;;5052027;28;20041;-74
2021/04/27 02:56:18;;;;;;;2.35;1.30;;;4.60;54.50;;;;;;5065791;28;20048;-74
2021/04/27 02:58:49;;;;;;;3.30;1.40;;;4.60;54.50;;;;;;5052790;28;20040;-74
2021/04/27 03:01:16;;;;;;;5.38;1.38;;;4.50;55.20;;;;;;5070406;28;20035;-74
2021/04/27 03:03:42;;;;;;;4.28;1.23;;;4.50;55.20;;;;;;5060605;28;20049;-74
2021/04/27 03:06:09;;;;;;;3.78;1.10;;;4.60;54.80;;;;;;5050998;28;20452;-75
2021/04/27 03:08:47;;;;;;;2.80;1.20;;;4.60;54.80;;;;;;5066075;28;20044;-75
2021/04/27 03:11:14;;;;;;;4.20;1.33;;;4.70;54.60;;;;;;5050987;28;20049;-75
2021/04/27 03:13:41;;;;;;;4.68;1.80;;;4.90;53.80;;;;;;5051596;28;20036;-75
2021/04/27 03:16:08;;;;;;;4.88;1.55;;;5.10;53.20;;;;;;5069727;28;20049;-74
2021/04/27 03:18:35;;;;;;;4.25;1.35;;;5.20;52.60;;;;;;5066549;28;20036;-74
2021/04/27 03:21:02;;;;;;;2.50;1.23;;;5.30;52.40;;;;;;5058946;28;20037;-74
2021/04/27 03:23:30;;;;;;;3.08;1.08;;;5.30;52.20;;;;;;5051188;28;20045;-74
2021/04/27 03:25:57;;;;;;;2.75;1.45;;;5.30;52.20;;;;;;5065016;28;20028;-74
2021/04/27 03:28:53;;;;;;;5.13;1.25;;;5.40;51.90;;;;;;5032791;28;20042;-74
2021/04/27 03:31:21;;;;;;;2.03;1.13;;;5.40;51.60;;;;;;5045433;28;20057;-74
2021/04/27 03:33:47;;;;;;;3.70;1.23;;;5.50;51.50;;;;;;5052219;28;20359;-74
2021/04/27 03:36:14;;;;;;;3.10;1.30;;;5.30;51.70;;;;;;5066225;28;20036;-74
2021/04/27 03:38:42;;;;;;;2.47;1.42;;;5.40;51.60;;;;;;5067220;28;20505;-74
2021/04/27 03:41:08;;;;;;;4.30;1.40;;;5.40;51.60;;;;;;5066431;28;20520;-75
2021/04/27 03:43:36;;;;;;;3.45;1.30;;;5.30;51.90;;;;;;5064960;28;20601;-74
2021/04/27 03:46:02;;;;;;;2.78;1.30;;;5.20;52.10;;;;;;5062377;28;20063;-74
2021/04/27 03:48:29;;;;;;;4.03;1.48;;;5.10;52.30;;;;;;5052569;28;20053;-74
2021/04/27 03:50:57;;;;;;;3.47;1.48;;;5.20;52.10;;;;;;5051881;28;20040;-74
2021/04/27 03:53:42;;;;;;;2.67;1.05;;;5.10;52.80;;;;;;5058779;28;20044;-74
2021/04/27 03:56:15;;;;;;;2.97;1.23;;;5.00;52.80;;;;;;5052242;28;20045;-74
2021/04/27 03:58:42;;;;;;;2.38;1.27;;;5.00;53.20;;;;;;5072626;28;20482;-74
2021/04/27 04:01:08;;;;;;;4.05;1.63;;;5.00;53.00;;;;;;5061823;28;20037;-74
2021/04/27 04:03:40;;;;;;;2.92;1.80;;;5.00;52.90;;;;;;5069737;28;20041;-74
2021/04/27 04:06:07;;;;;;;;;;;5.00;52.90;;;;;;5070610;28;20048;-74
2021/04/27 04:08:52;;;;;;;3.92;1.20;;;4.90;53.40;;;;;;5055998;28;19920;-74
2021/04/27 04:11:21;;;;;;;4.97;1.15;;;4.80;55.40;;;;;;5054197;28;20052;-74
2021/04/27 04:13:47;;;;;;;2.13;1.05;;;4.60;55.90;;;;;;5070568;28;20044;-74
2021/04/27 04:16:14;;;;;;;3.33;1.27;;;4.50;56.30;;;;;;5071054;28;20037;-75
2021/04/27 04:18:40;;;;;;;2.78;1.05;;;4.30;56.80;;;;;;5070559;28;20048;-75
2021/04/27 04:21:07;;;;;;;2.85;1.10;;;4.30;57.10;;;;;;5071248;28;20037;-75
2021/04/27 04:23:53;;;;;;;2.83;1.20;;;4.20;57.30;;;;;;5054305;28;20151;-75
2021/04/27 04:26:21;;;;;;;2.58;1.02;;;4.20;57.40;;;;;;5055179;28;20049;-75
2021/04/27 04:29:08;;;;;;;4.05;1.45;;;4.30;56.90;;;;;;5036390;28;20067;-75
2021/04/27 04:31:37;;;;;;;2.95;1.10;;;4.30;57.00;;;;;;5053940;28;20037;-75
2021/04/27 04:34:23;;;;;;;2.60;1.33;;;4.40;56.80;;;;;;5065681;28;20040;-75
2021/04/27 04:37:09;;;;;;;3.70;1.00;;;4.50;56.30;;;;;;5072318;28;20028;-75
2021/04/27 04:39:53;;;;;;;6.47;1.30;;;4.60;57.20;;;;;;5073031;28;20048;-75
2021/04/27 04:42:40;;;;;;;5.07;1.13;;;4.60;56.90;;;;;;5054994;28;20037;-75
2021/04/27 04:45:29;;;;;;;2.28;1.27;;;4.60;57.00;;;;;;5067048;28;20094;-75
2021/04/27 04:48:14;;;;;;;5.80;1.15;;;4.70;57.40;;;;;;5054707;28;20383;-75
2021/04/27 04:50:59;;;;;;;2.08;1.10;;;4.60;57.20;;;;;;5065085;28;20049;-76
2021/04/27 04:53:45;;;;;;;2.38;1.20;;;4.50;57.60;;;;;;5063130;28;20045;-75
2021/04/27 04:56:13;;;;;;;6.25;1.48;;;4.50;57.50;;;;;;5068574;28;20048;-74
2021/04/27 04:58:40;;;;;;;3.05;1.15;;;4.50;58.00;;;;;;5055346;28;20041;-75
2021/04/27 05:01:09;;;;;;;2.45;1.00;;;4.50;58.00;;;;;;5071784;28;20036;-75
2021/04/27 05:03:39;;;;;;;4.30;1.80;;;4.50;57.80;;;;;;5070691;28;20044;-75
2021/04/27 05:06:24;;;;;;;3.85;1.60;;;4.70;57.40;;;;;;5070013;28;20033;-75
2021/04/27 05:09:12;;;;;;;2.08;1.20;;;5.20;55.70;;;;;;5025315;28;20486;-76
2021/04/27 05:11:49;;;;;;;2.42;1.25;;;5.70;53.90;;;;;;5054020;28;20402;-75
2021/04/27 05:14:33;;;;;;;3.00;1.23;;;6.00;53.20;;;;;;5061172;28;20033;-75
2021/04/27 05:16:59;;;;;;;2.45;1.42;;;6.10;52.70;;;;;;5066905;28;20036;-73
2021/04/27 05:19:26;;;;;;;3.80;1.67;;;6.10;52.60;;;;;;5063753;28;20036;-73
2021/04/27 05:21:53;;;;;;;2.60;1.23;;;6.40;52.00;;;;;;5063022;28;20039;-74
2021/04/27 05:24:21;;;;;;;2.47;1.35;;;7.00;50.90;;;;;;5060857;28;20463;-75
2021/04/27 05:26:48;;;;;;;2.38;1.10;;;7.50;50.20;;;;;;5052035;28;20052;-74
2021/04/27 05:29:15;;;;;;;9.70;1.40;;;8.10;49.00;;;;;;5069813;28;20056;-74
2021/04/27 05:31:42;;;;;;;7.82;1.45;;;8.20;49.00;;;;;;5054375;28;20470;-74
2021/04/27 05:34:08;;;;;;;3.13;1.40;;;8.10;48.80;;;;;;5054210;28;20485;-75
2021/04/27 05:36:35;;;;;;;5.68;1.25;;;8.40;48.40;;;;;;5054379;28;20036;-76
2021/04/27 05:39:01;;;;;;;6.85;1.90;;;8.80;47.20;;;;;;5054441;28;20029;-76
2021/04/27 05:41:27;;;;;;;5.13;1.70;;;9.30;46.70;;;;;;5054081;28;20032;-75
2021/04/27 05:43:53;;;;;;;4.80;1.95;;;9.80;45.90;;;;;;5054192;28;20037;-75
2021/04/27 05:46:20;;;;;;;5.32;1.73;;;9.80;45.70;;;;;;5053776;28;20029;-75
2021/04/27 05:48:46;;;;;;;3.70;1.55;;;9.50;46.00;;;;;;5054741;28;20053;-76
2021/04/27 05:51:12;;;;;;;2.53;1.48;;;9.60;45.20;;;;;;5053673;28;20025;-75
2021/04/27 05:53:39;;;;;;;5.28;1.42;;;9.30;45.30;;;;;;5054415;28;20044;-75
2021/04/27 05:56:05;;;;;;;3.55;1.40;;;8.80;46.40;;;;;;5054149;28;20032;-75
2021/04/27 05:58:31;;;;;;;3.30;1.25;;;9.20;46.40;;;;;;5053703;28;20051;-76
2021/04/27 06:00:57;;;;;;;4.18;1.40;;;9.40;45.50;;;;;;5053772;28;20032;-75
2021/04/27 06:03:24;;;;;;;3.95;1.50;;;9.80;45.60;;;;;;5053128;28;20041;-75
2021/04/27 06:05:50;;;;;;;3.47;1.38;;;10.30;44.80;;;;;;5053812;28;20402;-75
2021/04/27 06:08:17;;;;;;;3.90;1.13;;;10.30;44.00;;;;;;5053490;28;20080;-75
2021/04/27 06:10:43;;;;;;;3.17;1.33;;;10.40;44.00;;;;;;5060726;28;20039;-76
2021/04/27 06:13:09;;;;;;;3.85;1.50;;;10.20;44.40;;;;;;5065873;28;20072;-76
2021/04/27 06:15:35;;;;;;;4.95;1.23;;;10.20;44.30;;;;;;5062147;28;20025;-76
2021/04/27 06:18:02;;;;;;;4.25;1.90;;;10.10;43.60;;;;;;5066085;28;20036;-85
2021/04/27 06:20:28;;;;;;;3.75;1.52;;;10.50;43.60;;;;;;5057368;28;20029;-85
2021/04/27 06:22:54;;;;;;;2.22;1.40;;;10.40;43.50;;;;;;5053732;28;20092;-85
2021/04/27 06:25:20;;;;;;;3.28;1.20;;;10.20;43.40;;;;;;5065237;28;20032;-84
2021/04/27 06:27:48;;;;;;;4.22;1.60;;;10.40;43.20;;;;;;5061900;28;20040;-86
2021/04/27 06:30:15;;;;;;;2.97;1.33;;;10.20;42.80;;;;;;5061286;28;20033;-85
2021/04/27 06:32:42;;;;;;;4.68;1.65;;;10.50;43.40;;;;;;5064318;28;20049;-86
2021/04/27 06:35:08;;;;;;;3.55;1.48;;;10.90;42.70;;;;;;5054197;28;20037;-85
2021/04/27 06:37:35;;;;;;;4.40;1.33;;;10.70;42.40;;;;;;5064299;28;20024;-85
2021/04/27 06:40:01;;;;;;;2.80;1.58;;;10.90;42.20;;;;;;5054206;28;20025;-86
2021/04/27 06:42:27;;;;;;;3.15;1.65;;;11.20;41.70;;;;;;5052089;28;20032;-85
2021/04/27 06:44:54;;;;;;;6.03;1.30;;;12.20;40.70;;;;;;5054289;28;20041;-85
2021/04/27 06:47:21;;;;;;;3.75;1.42;;;11.20;41.20;;;;;;5053895;28;20477;-85
2021/04/27 06:49:47;;;;;;;3.83;1.60;;;11.10;41.40;;;;;;5052359;28;20033;-85
2021/04/27 06:52:13;;;;;;;4.20;1.88;;;11.10;41.50;;;;;;5060178;28;20037;-83
2021/04/27 06:54:39;;;;;;;5.22;1.60;;;10.70;42.00;;;;;;5074864;28;20071;-85
2021/04/27 06:57:06;;;;;;;3.60;1.30;;;10.90;41.80;;;;;;5090214;28;20039;-81
2021/04/27 06:59:32;;;;;;;3.60;1.60;;;10.90;41.80;;;;;;5089650;28;20032;-85
2021/04/27 07:02:05;;;;;;;3.33;1.80;;;11.40;41.60;;;;;;5059758;28;20378;-85
2021/04/27 07:04:34;;;;;;;3.08;1.70;;;11.30;41.00;;;;;;5063796;28;20489;-85
2021/04/27 07:07:00;;;;;;;3.25;2.05;;;11.10;41.90;;;;;;5056374;28;20044;-85
2021/04/27 07:09:26;;;;;;;13.38;2.50;;;11.00;42.10;;;;;;5052766;28;20498;-85
2021/04/27 07:11:53;;;;;;;3.00;1.27;;;11.00;41.80;;;;;;5052997;28;20025;-83
2021/04/27 07:14:19;;;;;;;6.82;1.73;;;10.60;42.20;;;;;;5057245;28;20021;-84
2021/04/27 07:16:45;;;;;;;6.32;1.80;;;11.10;42.10;;;;;;5068883;28;20048;-85
2021/04/27 07:19:12;;;;;;;2.70;1.58;;;10.70;42.50;;;;;;5071986;28;20036;-84
2021/04/27 07:21:39;;;;;;;4.45;1.92;;;11.60;41.30;;;;;;5059438;28;20487;-84
2021/04/27 07:24:06;;;;;;;3.22;2.00;;;12.50;40.30;;;;;;5079572;28;20016;-82
2021/04/27 07:26:33;;;;;;;4.13;1.80;;;12.90;39.50;;;;;;5080647;28;20033;-85
2021/04/27 07:28:59;;;;;;;4.78;2.13;;;13.30;39.10;;;;;;5071150;28;20043;-85
2021/04/27 07:31:25;;;;;;;4.60;1.65;;;12.90;39.40;;;;;;5051897;28;20029;-84
2021/04/27 07:33:51;;;;;;;2.88;1.60;;;12.60;39.90;;;;;;5056512;28;20040;-85
2021/04/27 07:36:19;;;;;;;4.38;2.20;;;13.10;38.90;;;;;;5066750;28;20040;-85
2021/04/27 07:38:46;;;;;;;3.00;1.50;;;13.60;38.70;;;;;;5052766;28;20383;-83
2021/04/27 07:41:12;;;;;;;3.05;1.50;;;13.60;38.40;;;;;;5055242;28;20029;-85
2021/04/27 07:43:39;;;;;;;2.97;1.55;;;14.20;38.10;;;;;;5063223;28;20044;-86
2021/04/27 07:46:06;;;;;;;3.90;1.92;;;13.80;38.40;;;;;;5065836;28;20037;-85
2021/04/27 07:48:32;;;;;;;4.45;1.98;;;13.80;38.50;;;;;;5061931;28;20041;-83
2021/04/27 07:50:59;;;;;;;3.90;1.88;;;13.30;38.80;;;;;;5067104;28;20056;-85
2021/04/27 07:53:25;;;;;;;2.83;2.00;;;13.80;38.50;;;;;;5063235;28;20055;-85
2021/04/27 07:55:52;;;;;;;3.10;1.95;;;14.60;37.50;;;;;;5052533;28;20029;-85
2021/04/27 07:58:19;;;;;;;3.83;1.98;;;14.70;36.70;;;;;;5064092;28;20441;-85
2021/04/27 08:00:45;;;;;;;4.75;2.65;;;15.20;37.60;;;;;;5059611;28;20498;-86
2021/04/27 08:03:12;;;;;;;3.55;3.20;;;15.70;36.00;;;;;;5052257;28;20099;-85
2021/04/27 08:05:40;;;;;;;3.85;2.45;;;14.10;37.40;;;;;;5059184;28;20040;-86
2021/04/27 08:08:06;;;;;;;4.72;2.55;;;14.00;37.70;;;;;;5054145;28;20041;-86
2021/04/27 08:10:32;;;;;;;5.13;2.38;;;12.50;40.00;;;;;;5057769;28;20033;-86
2021/04/27 08:12:59;;;;;;;3.38;1.90;;;13.70;39.10;;;;;;5060133;28;20036;-85
2021/04/27 08:15:28;;;;;;;7.03;2.20;;;14.50;38.10;;;;;;5051334;28;20040;-87
2021/04/27 08:18:00;;;;;;;6.50;2.22;;;14.20;38.20;;;;;;5052525;28;20044;-86
2021/04/27 08:20:29;;;;;;;3.45;2.30;;;14.90;38.60;;;;;;5064243;28;20033;-86
2021/04/27 08:22:55;;;;;;;3.63;1.77;;;15.30;36.90;;;;;;5058133;28;20378;-85
2021/04/27 08:25:22;;;;;;;4.47;2.42;;;14.50;37.30;;;;;;5057010;28;20469;-84
2021/04/27 08:27:49;;;;;;;4.20;2.40;;;14.40;37.60;;;;;;5052221;28;20040;-84
2021/04/27 08:30:17;;;;;;;3.35;2.25;;;14.80;37.30;;;;;;5050476;28;20048;-84
2021/04/27 08:32:44;;;;;;;5.55;2.67;;;15.90;37.60;;;;;;5065959;28;20044;-86
2021/04/27 08:35:11;;;;;;;3.75;2.28;;;15.90;36.00;;;;;;5063188;28;20040;-87
2021/04/27 08:37:38;;;;;;;3.65;2.38;;;15.20;36.80;;;;;;5065940;28;20049;-86
2021/04/27 08:40:07;;;;;;;5.20;2.90;;;14.80;38.10;;;;;;5053600;28;20409;-87
2021/04/27 08:42:35;;;;;;;5.25;2.47;;;15.60;37.10;;;;;;5052389;28;20619;-86
2021/04/27 08:45:20;;;;;;;5.15;2.33;;;16.00;37.90;;;;;;5057356;28;20029;-88
2021/04/27 08:47:50;;;;;;;4.72;2.47;;;16.80;35.40;;;;;;5070504;28;20037;-87
2021/04/27 08:50:18;;;;;;;4.13;2.25;;;16.00;36.20;;;;;;5055021;28;20398;-86
2021/04/27 08:52:45;;;;;;;4.47;2.35;;;16.10;37.20;;;;;;5055784;28;20401;-85
2021/04/27 08:55:13;;;;;;;5.03;2.25;;;16.40;36.40;;;;;;5054299;28;20032;-84
2021/04/27 08:57:40;;;;;;;3.88;2.40;;;15.20;36.80;;;;;;5062195;28;20037;-85
2021/04/27 09:00:11;;;;;;;4.05;2.35;;;15.20;37.00;;;;;;5055398;28;20036;-85
2021/04/27 09:02:38;;;;;;;4.93;1.92;;;15.40;37.30;;;;;;5054937;28;20041;-89
2021/04/27 09:05:18;;;;;;;3.90;2.35;;;15.60;36.90;;;;;;5055601;28;20032;-88
2021/04/27 09:07:44;;;;;;;4.57;2.25;;;14.90;38.20;;;;;;5055622;28;20037;-88
2021/04/27 09:10:17;;;;;;;5.45;2.95;;;14.40;38.90;;;;;;5055840;28;20453;-87
2021/04/27 09:12:52;;;;;;;5.13;3.10;;;14.10;38.80;;;;;;5055415;28;20040;-85
2021/04/27 09:15:31;;;;;;;4.75;2.70;;;15.20;37.80;;;;;;5072511;28;20039;-88
2021/04/27 09:17:58;;;;;;;5.03;2.33;;;15.30;38.10;;;;;;5067913;28;20040;-88
2021/04/27 09:20:24;;;;;;;5.43;2.63;;;15.50;38.10;;;;;;5054353;28;20497;-88
2021/04/27 09:23:05;;;;;;;4.45;2.63;;;15.70;37.20;;;;;;5059180;28;20037;-86
2021/04/27 09:25:31;;;;;;;4.32;2.88;;;16.30;37.40;;;;;;5055341;28;20497;-86
2021/04/27 09:27:58;;;;;;;4.20;2.92;;;16.40;37.00;;;;;;5055641;28;20037;-87
2021/04/27 09:30:27;;;;;;;3.08;2.33;;;16.00;36.60;;;;;;5058130;28;20044;-86
2021/04/27 09:32:56;;;;;;;7.17;3.63;;;15.80;37.40;;;;;;5078896;28;20045;-86
2021/04/27 09:35:32;;;;;;;5.15;2.58;;;16.30;36.20;;;;;;5079090;28;20013;-80
2021/04/27 09:38:12;;;;;;;9.07;8.27;;;16.00;37.20;;;;;;5077635;28;20381;-89
2021/04/27 09:41:02;;;;;;;7.72;3.88;;;15.80;36.80;;;;;;5062419;28;20048;-87
2021/04/27 09:43:34;;;;;;;4.03;2.15;;;15.70;37.40;;;;;;5055798;28;20040;-86
2021/04/27 09:46:03;;;;;;;5.28;3.38;;;15.20;38.90;;;;;;5053903;28;20037;-87
2021/04/27 09:48:38;;;;;;;4.57;2.72;;;16.30;36.90;;;;;;5054980;28;20033;-87
2021/04/27 09:51:14;;;;;;;4.43;2.53;;;16.00;36.80;;;;;;5058403;28;20037;-83
2021/04/27 09:53:42;;;;;;;6.22;3.22;;;15.70;36.50;;;;;;5055914;28;20055;-87
2021/04/27 09:56:09;;;;;;;6.32;3.17;;;16.00;36.90;;;;;;5054187;28;20025;-87
2021/04/27 09:58:36;;;;;;;4.18;2.50;;;15.40;37.80;;;;;;5053851;28;20041;-86
2021/04/27 10:01:05;;;;;;;5.47;2.78;;;15.20;38.00;;;;;;5069947;28;20045;-86
2021/04/27 10:03:32;;;;;;;3.95;3.00;;;16.20;37.60;;;;;;5062386;28;20047;-86
2021/04/27 10:05:59;;;;;;;5.72;3.35;;;16.80;37.50;;;;;;5061129;28;20033;-87
2021/04/27 10:08:26;;;;;;;3.78;2.97;;;16.10;37.50;;;;;;5054412;28;20484;-86
2021/04/27 10:10:54;;;;;;;7.65;2.80;;;15.40;37.90;;;;;;5054390;28;20367;-85
2021/04/27 10:13:21;;;;;;;7.20;2.85;;;15.30;37.70;;;;;;5062180;28;20393;-86
2021/04/27 10:15:49;;;;;;;5.18;2.78;;;15.50;37.70;;;;;;5069557;28;20363;-87
2021/04/27 10:18:16;;;;;;;5.47;3.00;;;14.80;38.70;;;;;;5054237;28;20418;-86
2021/04/27 10:20:42;;;;;;;6.05;3.55;;;14.60;38.60;;;;;;5065929;28;20032;-87
2021/04/27 10:23:11;;;;;;;6.10;2.83;;;14.40;39.10;;;;;;5073571;28;20035;-86
2021/04/27 10:25:38;;;;;;;8.45;3.22;;;14.50;39.10;;;;;;5053394;28;20040;-85
2021/04/27 10:28:07;;;;;;;4.47;3.00;;;15.00;39.20;;;;;;5053788;28;20417;-84
2021/04/27 10:30:42;;;;;;;6.20;3.42;;;15.50;38.20;;;;;;5053622;28;20382;-84
2021/04/27 10:33:29;;;;;;;7.22;3.00;;;15.40;37.90;;;;;;5060611;28;20504;-86
2021/04/27 10:36:14;;;;;;;4.53;3.10;;;15.40;37.60;;;;;;5054197;28;20056;-86
2021/04/27 10:38:43;;;;;;;8.27;3.25;;;15.30;37.80;;;;;;5053888;28;20029;-87
2021/04/27 10:41:15;;;;;;;5.63;3.63;;;14.80;38.50;;;;;;5053687;28;20036;-87
2021/04/27 10:43:52;;;;;;;4.43;3.13;;;14.90;38.20;;;;;;5054590;28;20048;-85
2021/04/27 10:46:22;;;;;;;6.80;2.97;;;14.80;38.10;;;;;;5053652;28;20036;-86
2021/04/27 10:48:49;;;;;;;4.15;3.15;;;15.10;38.70;;;;;;5056054;28;20457;-84
2021/04/27 10:51:22;;;;;;;13.07;3.42;;;15.80;37.60;;;;;;5065054;28;20044;-83
2021/04/27 10:54:16;;;;;;;6.20;4.00;;;15.60;37.90;;;;;;5053636;28;20029;-85
2021/04/27 10:56:55;;;;;;;6.63;3.17;;;16.20;38.30;;;;;;5053742;28;20033;-83
2021/04/27 10:59:24;;;;;;;5.85;3.10;;;16.40;37.20;;;;;;5052724;28;20037;-88
2021/04/27 11:02:13;;;;;;;9.32;3.60;;;16.30;36.90;;;;;;5052844;28;20067;-85
2021/04/27 11:04:43;;;;;;;6.30;4.20;;;15.90;37.50;;;;;;5053367;28;20473;-85
2021/04/27 11:07:22;;;;;;;5.70;3.28;;;15.60;37.70;;;;;;5055000;28;20049;-85
2021/04/27 11:10:06;;;;;;;7.78;3.30;;;15.80;37.40;;;;;;5056942;28;20482;-86
2021/04/27 11:12:40;;;;;;;5.05;3.42;;;16.00;37.20;;;;;;5071538;28;20024;-86
2021/04/27 11:15:10;;;;;;;5.35;3.80;;;15.60;37.30;;;;;;5074162;28;20039;-80
2021/04/27 11:17:52;;;;;;;6.55;3.42;;;15.70;37.70;;;;;;5086479;28;20385;-85
2021/04/27 11:20:43;;;;;;;8.32;3.28;;;15.80;37.40;;;;;;5052631;28;20044;-85
2021/04/27 11:23:29;;;;;;;;;;;15.90;36.90;;;;;;5064006;28;20032;-84
2021/04/27 11:25:55;;;;;;;7.10;3.20;;;15.80;37.30;;;;;;5063444;28;19911;-85
2021/04/27 11:29:00;;;;;;;6.38;3.20;;;15.80;37.70;;;;;;5065108;28;20033;-85
2021/04/27 11:31:27;;;;;;;6.57;3.42;;;15.70;37.50;;;;;;5052770;28;20056;-87
2021/04/27 11:33:58;;;;;;;8.13;3.47;;;15.80;37.40;;;;;;5063654;28;20033;-84
2021/04/27 11:36:38;;;;;;;4.50;3.47;;;15.90;37.70;;;;;;5051181;28;20040;-87
2021/04/27 11:39:11;;;;;;;6.57;4.00;;;16.50;37.00;;;;;;5062363;28;20049;-85
2021/04/27 11:41:48;;;;;;;7.30;3.45;;;16.00;36.90;;;;;;5052268;28;20036;-85
2021/04/27 11:44:17;;;;;;;5.82;3.33;;;16.20;37.40;;;;;;5056479;28;20041;-87
2021/04/27 11:47:02;;;;;;;6.85;3.13;;;16.30;36.90;;;;;;5053946;28;20037;-82
2021/04/27 11:49:47;;;;;;;5.05;2.90;;;16.20;37.70;;;;;;5057941;28;20033;-85
2021/04/27 11:52:14;;;;;;;4.93;3.20;;;16.70;36.60;;;;;;5059146;28;20059;-86
2021/04/27 11:54:41;;;;;;;6.57;3.47;;;16.70;35.50;;;;;;5069667;28;20028;-84
2021/04/27 11:57:17;;;;;;;4.70;3.30;;;16.60;35.40;;;;;;5062282;28;20037;-85
2021/04/27 11:59:44;;;;;;;10.23;3.58;;;16.30;35.50;;;;;;5053734;28;20048;-86
2021/04/27 12:02:14;;;;;;;5.72;3.40;;;16.40;35.80;;;;;;5064750;28;20033;-86
2021/04/27 12:04:42;;;;;;;4.43;3.60;;;16.40;35.40;;;;;;5070365;28;20033;-84
2021/04/27 12:07:09;;;;;;;6.20;3.65;;;16.20;35.70;;;;;;5060997;28;20024;-84
2021/04/27 12:09:44;;;;;;;7.03;3.30;;;16.60;36.70;;;;;;5054954;28;20032;-84
2021/04/27 12:12:13;;;;;;;5.80;3.10;;;17.00;36.10;;;;;;5057462;28;20020;-85
2021/04/27 12:14:50;;;;;;;6.28;3.15;;;17.10;35.50;;;;;;5062722;28;20036;-84
2021/04/27 12:17:29;;;;;;;7.15;3.22;;;17.40;36.00;;;;;;5062707;28;20024;-83
2021/04/27 12:20:13;;;;;;;7.13;3.33;;;17.10;34.90;;;;;;5066567;28;20044;-85
2021/04/27 12:22:45;;;;;;;4.07;2.95;;;17.30;35.20;;;;;;5063840;28;20358;-85
2021/04/27 12:25:26;;;;;;;6.35;4.07;;;17.80;34.60;;;;;;5056932;28;20048;-86
2021/04/27 12:28:02;;;;;;;5.50;3.15;;;17.20;34.60;;;;;;5056138;28;20390;-84
2021/04/27 12:30:30;;;;;;;5.65;3.35;;;17.40;35.60;;;;;;5055417;28;20037;-85
2021/04/27 12:32:59;;;;;;;4.45;2.90;;;17.80;35.90;;;;;;5055888;28;20052;-85
2021/04/27 12:35:29;;;;;;;4.57;3.35;;;18.30;34.80;;;;;;5055548;28;20029;-85
2021/04/27 12:38:02;;;;;;;6.43;3.47;;;18.50;34.60;;;;;;5056143;28;20025;-86
2021/04/27 12:40:36;;;;;;;4.63;3.33;;;18.00;34.60;;;;;;5054705;28;20033;-84
2021/04/27 12:43:11;;;;;;;7.15;3.40;;;18.10;35.50;;;;;;5055705;28;20060;-83
2021/04/27 12:45:48;;;;;;;5.53;3.13;;;17.70;34.60;;;;;;5054881;28;20040;-84
2021/04/27 12:48:16;;;;;;;6.22;3.63;;;17.40;35.30;;;;;;5055679;28;20043;-87
2021/04/27 12:50:49;;;;;;;5.50;3.17;;;17.80;33.50;;;;;;5055554;28;20467;-85
2021/04/27 12:53:16;;;;;;;5.88;3.35;;;17.70;33.00;;;;;;5054354;28;20040;-86
2021/04/27 12:55:52;;;;;;;10.13;4.35;;;17.90;33.00;;;;;;5055301;28;20029;-84
2021/04/27 12:58:23;;;;;;;5.53;3.58;;;17.80;32.80;;;;;;5054273;28;20044;-84
2021/04/27 13:00:49;;;;;;;;;;;17.60;32.80;;;;;;5058425;28;20482;-83
2021/04/27 13:03:18;;;;;;;4.55;3.00;;;17.40;32.90;;;;;;5056229;28;20353;-85
2021/04/27 13:05:44;;;;;;;5.38;2.63;;;17.60;33.50;;;;;;5069641;28;20037;-84
2021/04/27 13:08:13;;;;;;;3.53;2.75;;;17.80;33.00;;;;;;5055065;28;20100;-86
2021/04/27 13:10:46;;;;;;;5.88;3.53;;;17.90;32.40;;;;;;5055746;28;20041;-87
2021/04/27 13:13:15;;;;;;;5.25;2.75;;;18.10;32.70;;;;;;5055919;28;20045;-89